WI54 weather

CLOSED Corinth Airport
Athens, Wisconsin, United States

Public forecast

Using degrees Fahrenheit for public forecast. Weather courtesy of forecast.io.

Closest aviation weather report (METAR) to Corinth Airport

Closest report is Taylor County Airport, 8.9 nm (16.5 km) NW. Retrieved 2020/02/18 15:35 UTC (6 minutes ago):

KMDZ 181535Z AUTO 30010G20KT 4SM -SN OVC016 M08/M12 A3006 RMK AO2 T10851116

Closest aviation forecast (TAF) to Corinth Airport

Closest forecast is Wausau Downtown Airport, 22.6 nm (41.9 km) E. Retrieved 2020/02/18 12:27 UTC (3 hours ago):

TAF KAUW 181125Z 1812/1912 32013G20KT P6SM -SHSN BKN015 BKN025 TEMPO 1813/1815 SCT025 FM181500 30014G23KT P6SM BKN020 BKN035 FM182000 29014G23KT P6SM BKN035 FM190000 30010G16KT P6SM SCT030 FM190200 30007KT P6SM SKC